sensor_id;sensor_type;location;lat;lon;timestamp;temperature;humidity
64796;DHT22;51229;51.980;6.722;2023-05-01T00:00:08;10.50;99.90
64796;DHT22;51229;51.980;6.722;2023-05-01T00:02:35;10.50;99.90
64796;DHT22;51229;51.980;6.722;2023-05-01T00:05:01;10.50;99.90
64796;DHT22;51229;51.980;6.722;2023-05-01T00:07:27;10.50;99.90
64796;DHT22;51229;51.980;6.722;2023-05-01T00:09:56;10.40;99.90
64796;DHT22;51229;51.980;6.722;2023-05-01T00:12:22;10.50;99.90
64796;DHT22;51229;51.980;6.722;2023-05-01T00:14:48;10.40;99.90
64796;DHT22;51229;51.980;6.722;2023-05-01T00:17:14;10.40;99.90
64796;DHT22;51229;51.980;6.722;2023-05-01T00:19:41;10.30;99.90
64796;DHT22;51229;51.980;6.722;2023-05-01T00:22:08;10.30;99.90
64796;DHT22;51229;51.980;6.722;2023-05-01T00:24:33;10.30;99.90
64796;DHT22;51229;51.980;6.722;2023-05-01T00:26:59;10.20;99.90
64796;DHT22;51229;51.980;6.722;2023-05-01T00:29:25;10.20;99.90
64796;DHT22;51229;51.980;6.722;2023-05-01T00:31:50;10.20;99.90
64796;DHT22;51229;51.980;6.722;2023-05-01T00:34:16;10.10;99.90
64796;DHT22;51229;51.980;6.722;2023-05-01T00:36:42;10.10;99.90
64796;DHT22;51229;51.980;6.722;2023-05-01T00:39:08;10.10;99.90
64796;DHT22;51229;51.980;6.722;2023-05-01T00:41:34;10.10;99.90
64796;DHT22;51229;51.980;6.722;2023-05-01T00:44:00;10.10;99.90
64796;DHT22;51229;51.980;6.722;2023-05-01T00:46:27;10.00;99.90
64796;DHT22;51229;51.980;6.722;2023-05-01T00:48:55;10.00;99.90
64796;DHT22;51229;51.980;6.722;2023-05-01T00:51:21;10.00;99.90
64796;DHT22;51229;51.980;6.722;2023-05-01T00:53:47;10.00;99.90
64796;DHT22;51229;51.980;6.722;2023-05-01T00:56:14;9.90;99.90
64796;DHT22;51229;51.980;6.722;2023-05-01T00:58:40;9.90;99.90
64796;DHT22;51229;51.980;6.722;2023-05-01T01:01:06;9.90;99.90
64796;DHT22;51229;51.980;6.722;2023-05-01T01:03:35;9.90;99.90
64796;DHT22;51229;51.980;6.722;2023-05-01T01:06:09;9.80;99.90
64796;DHT22;51229;51.980;6.722;2023-05-01T01:08:48;9.80;99.90
64796;DHT22;51229;51.980;6.722;2023-05-01T01:11:39;9.80;99.90
64796;DHT22;51229;51.980;6.722;2023-05-01T01:14:11;9.80;99.90
64796;DHT22;51229;51.980;6.722;2023-05-01T01:16:57;9.90;99.90
64796;DHT22;51229;51.980;6.722;2023-05-01T01:20:03;9.70;99.90
64796;DHT22;51229;51.980;6.722;2023-05-01T01:22:32;9.70;99.90
64796;DHT22;51229;51.980;6.722;2023-05-01T01:28:23;9.70;99.90
64796;DHT22;51229;51.980;6.722;2023-05-01T01:36:39;9.50;99.90
64796;DHT22;51229;51.980;6.722;2023-05-01T01:39:14;9.50;99.90
64796;DHT22;51229;51.980;6.722;2023-05-01T01:41:49;9.50;99.90
64796;DHT22;51229;51.980;6.722;2023-05-01T01:44:24;9.50;99.90
64796;DHT22;51229;51.980;6.722;2023-05-01T01:46:53;9.50;99.90
64796;DHT22;51229;51.980;6.722;2023-05-01T01:49:22;9.40;99.90
64796;DHT22;51229;51.980;6.722;2023-05-01T01:51:50;9.40;99.90
64796;DHT22;51229;51.980;6.722;2023-05-01T01:54:22;9.40;99.90
64796;DHT22;51229;51.980;6.722;2023-05-01T01:56:49;9.30;99.90
64796;DHT22;51229;51.980;6.722;2023-05-01T01:59:17;9.30;99.90
64796;DHT22;51229;51.980;6.722;2023-05-01T02:01:45;9.30;99.90
64796;DHT22;51229;51.980;6.722;2023-05-01T02:04:13;9.30;99.90
64796;DHT22;51229;51.980;6.722;2023-05-01T02:06:40;9.20;99.90
64796;DHT22;51229;51.980;6.722;2023-05-01T02:09:08;9.20;99.90
64796;DHT22;51229;51.980;6.722;2023-05-01T02:11:35;9.20;99.90
64796;DHT22;51229;51.980;6.722;2023-05-01T02:14:03;9.30;99.90
64796;DHT22;51229;51.980;6.722;2023-05-01T02:16:32;9.20;99.90
64796;DHT22;51229;51.980;6.722;2023-05-01T02:18:59;9.10;99.90
64796;DHT22;51229;51.980;6.722;2023-05-01T02:21:26;9.10;99.90
64796;DHT22;51229;51.980;6.722;2023-05-01T02:23:57;9.10;99.90
64796;DHT22;51229;51.980;6.722;2023-05-01T02:26:25;9.10;99.90
64796;DHT22;51229;51.980;6.722;2023-05-01T02:28:53;9.10;99.90
64796;DHT22;51229;51.980;6.722;2023-05-01T02:31:19;9.00;99.90
64796;DHT22;51229;51.980;6.722;2023-05-01T02:33:47;9.00;99.90
64796;DHT22;51229;51.980;6.722;2023-05-01T02:36:13;9.00;99.90
64796;DHT22;51229;51.980;6.722;2023-05-01T02:38:39;9.00;99.90
64796;DHT22;51229;51.980;6.722;2023-05-01T02:41:07;9.00;99.90
64796;DHT22;51229;51.980;6.722;2023-05-01T02:43:36;8.90;99.90
64796;DHT22;51229;51.980;6.722;2023-05-01T02:46:03;8.90;99.90
64796;DHT22;51229;51.980;6.722;2023-05-01T02:48:31;8.80;99.90
64796;DHT22;51229;51.980;6.722;2023-05-01T02:50:59;8.80;99.90
64796;DHT22;51229;51.980;6.722;2023-05-01T02:53:26;8.80;99.90
64796;DHT22;51229;51.980;6.722;2023-05-01T02:55:58;8.80;99.90
64796;DHT22;51229;51.980;6.722;2023-05-01T02:58:23;8.80;99.90
64796;DHT22;51229;51.980;6.722;2023-05-01T03:00:49;8.80;99.90
64796;DHT22;51229;51.980;6.722;2023-05-01T03:03:15;8.80;99.90
64796;DHT22;51229;51.980;6.722;2023-05-01T03:05:41;8.80;99.90
64796;DHT22;51229;51.980;6.722;2023-05-01T03:08:08;8.70;99.90
64796;DHT22;51229;51.980;6.722;2023-05-01T03:10:38;8.70;99.90
64796;DHT22;51229;51.980;6.722;2023-05-01T03:13:04;8.70;99.90
64796;DHT22;51229;51.980;6.722;2023-05-01T03:15:30;8.70;99.90
64796;DHT22;51229;51.980;6.722;2023-05-01T03:17:56;8.70;99.90
64796;DHT22;51229;51.980;6.722;2023-05-01T03:20:22;8.70;99.90
64796;DHT22;51229;51.980;6.722;2023-05-01T03:22:47;8.60;99.90
64796;DHT22;51229;51.980;6.722;2023-05-01T03:25:13;8.60;99.90
64796;DHT22;51229;51.980;6.722;2023-05-01T03:27:39;8.60;99.90
64796;DHT22;51229;51.980;6.722;2023-05-01T03:30:06;8.50;99.90
64796;DHT22;51229;51.980;6.722;2023-05-01T03:32:37;8.50;99.90
64796;DHT22;51229;51.980;6.722;2023-05-01T03:35:05;8.50;99.90
64796;DHT22;51229;51.980;6.722;2023-05-01T03:37:31;8.50;99.90
64796;DHT22;51229;51.980;6.722;2023-05-01T03:39:59;8.50;99.90
64796;DHT22;51229;51.980;6.722;2023-05-01T03:43:03;8.40;99.90
64796;DHT22;51229;51.980;6.722;2023-05-01T03:45:29;8.40;99.90
64796;DHT22;51229;51.980;6.722;2023-05-01T03:47:55;8.40;99.90
64796;DHT22;51229;51.980;6.722;2023-05-01T03:50:22;8.40;99.90
64796;DHT22;51229;51.980;6.722;2023-05-01T03:52:49;8.40;99.90
64796;DHT22;51229;51.980;6.722;2023-05-01T03:55:15;8.30;99.90
64796;DHT22;51229;51.980;6.722;2023-05-01T03:57:42;8.30;99.90
64796;DHT22;51229;51.980;6.722;2023-05-01T04:00:09;8.30;99.90
64796;DHT22;51229;51.980;6.722;2023-05-01T04:02:42;8.20;99.90
64796;DHT22;51229;51.980;6.722;2023-05-01T04:05:11;8.20;99.90
64796;DHT22;51229;51.980;6.722;2023-05-01T04:07:40;8.20;99.90
64796;DHT22;51229;51.980;6.722;2023-05-01T04:10:06;8.20;99.90
64796;DHT22;51229;51.980;6.722;2023-05-01T04:12:34;8.20;99.90
64796;DHT22;51229;51.980;6.722;2023-05-01T04:15:01;8.20;99.90
64796;DHT22;51229;51.980;6.722;2023-05-01T04:17:30;8.10;99.90
64796;DHT22;51229;51.980;6.722;2023-05-01T04:19:56;8.10;99.90
64796;DHT22;51229;51.980;6.722;2023-05-01T04:22:22;8.10;99.90
64796;DHT22;51229;51.980;6.722;2023-05-01T04:24:48;8.00;99.90
64796;DHT22;51229;51.980;6.722;2023-05-01T04:27:14;8.00;99.90
64796;DHT22;51229;51.980;6.722;2023-05-01T04:29:40;8.00;99.90
64796;DHT22;51229;51.980;6.722;2023-05-01T04:32:07;8.00;99.90
64796;DHT22;51229;51.980;6.722;2023-05-01T04:34:32;8.00;99.90
64796;DHT22;51229;51.980;6.722;2023-05-01T04:36:58;8.00;99.90
64796;DHT22;51229;51.980;6.722;2023-05-01T04:39:24;8.00;99.90
64796;DHT22;51229;51.980;6.722;2023-05-01T04:41:50;8.00;99.90
64796;DHT22;51229;51.980;6.722;2023-05-01T04:44:16;8.00;99.90
64796;DHT22;51229;51.980;6.722;2023-05-01T04:46:43;7.90;99.90
64796;DHT22;51229;51.980;6.722;2023-05-01T04:49:09;7.90;99.90
64796;DHT22;51229;51.980;6.722;2023-05-01T04:51:35;7.90;99.90
64796;DHT22;51229;51.980;6.722;2023-05-01T04:54:01;7.90;99.90
64796;DHT22;51229;51.980;6.722;2023-05-01T04:56:30;7.90;99.90
64796;DHT22;51229;51.980;6.722;2023-05-01T04:58:59;7.80;99.90
64796;DHT22;51229;51.980;6.722;2023-05-01T05:01:26;7.90;99.90
64796;DHT22;51229;51.980;6.722;2023-05-01T05:03:53;7.80;99.90
64796;DHT22;51229;51.980;6.722;2023-05-01T05:06:19;7.80;99.90
64796;DHT22;51229;51.980;6.722;2023-05-01T05:08:45;7.90;99.90
64796;DHT22;51229;51.980;6.722;2023-05-01T05:11:11;7.90;99.90
64796;DHT22;51229;51.980;6.722;2023-05-01T05:13:45;8.00;99.90
64796;DHT22;51229;51.980;6.722;2023-05-01T05:16:12;8.00;99.90
64796;DHT22;51229;51.980;6.722;2023-05-01T05:18:38;8.00;99.90
64796;DHT22;51229;51.980;6.722;2023-05-01T05:21:05;8.10;99.90
64796;DHT22;51229;51.980;6.722;2023-05-01T05:23:31;8.10;99.90
64796;DHT22;51229;51.980;6.722;2023-05-01T05:25:58;8.10;99.90
64796;DHT22;51229;51.980;6.722;2023-05-01T05:28:29;8.00;99.90
64796;DHT22;51229;51.980;6.722;2023-05-01T05:30:56;8.00;99.90
64796;DHT22;51229;51.980;6.722;2023-05-01T05:33:23;8.10;99.90
64796;DHT22;51229;51.980;6.722;2023-05-01T05:35:50;7.80;99.90
64796;DHT22;51229;51.980;6.722;2023-05-01T05:38:17;7.70;99.90
64796;DHT22;51229;51.980;6.722;2023-05-01T05:40:46;8.00;99.90
64796;DHT22;51229;51.980;6.722;2023-05-01T05:43:12;8.20;99.90
64796;DHT22;51229;51.980;6.722;2023-05-01T05:45:38;8.10;99.90
64796;DHT22;51229;51.980;6.722;2023-05-01T05:48:03;8.10;99.90
64796;DHT22;51229;51.980;6.722;2023-05-01T05:50:32;7.80;99.90
64796;DHT22;51229;51.980;6.722;2023-05-01T05:52:58;7.80;99.90
64796;DHT22;51229;51.980;6.722;2023-05-01T05:55:24;7.50;99.90
64796;DHT22;51229;51.980;6.722;2023-05-01T05:58:16;7.30;99.90
64796;DHT22;51229;51.980;6.722;2023-05-01T06:00:46;7.50;99.90
64796;DHT22;51229;51.980;6.722;2023-05-01T06:03:13;7.60;99.90
64796;DHT22;51229;51.980;6.722;2023-05-01T06:05:40;7.60;99.90
64796;DHT22;51229;51.980;6.722;2023-05-01T06:08:06;7.80;99.90
64796;DHT22;51229;51.980;6.722;2023-05-01T06:10:31;7.70;99.90
64796;DHT22;51229;51.980;6.722;2023-05-01T06:12:57;7.80;99.90
64796;DHT22;51229;51.980;6.722;2023-05-01T06:15:23;7.70;99.90
64796;DHT22;51229;51.980;6.722;2023-05-01T06:17:53;7.90;99.90
64796;DHT22;51229;51.980;6.722;2023-05-01T06:20:18;8.10;99.90
64796;DHT22;51229;51.980;6.722;2023-05-01T06:22:44;8.10;99.90
64796;DHT22;51229;51.980;6.722;2023-05-01T06:25:19;8.30;99.90
64796;DHT22;51229;51.980;6.722;2023-05-01T06:27:45;8.10;99.90
64796;DHT22;51229;51.980;6.722;2023-05-01T06:30:11;8.30;99.90
64796;DHT22;51229;51.980;6.722;2023-05-01T06:32:40;8.40;99.90
64796;DHT22;51229;51.980;6.722;2023-05-01T06:35:08;8.70;99.90
64796;DHT22;51229;51.980;6.722;2023-05-01T06:37:34;8.80;99.90
64796;DHT22;51229;51.980;6.722;2023-05-01T06:40:00;8.60;99.90
64796;DHT22;51229;51.980;6.722;2023-05-01T06:42:26;8.60;99.90
64796;DHT22;51229;51.980;6.722;2023-05-01T06:44:59;8.50;99.90
64796;DHT22;51229;51.980;6.722;2023-05-01T06:47:26;8.70;99.90
64796;DHT22;51229;51.980;6.722;2023-05-01T06:49:52;8.90;99.90
64796;DHT22;51229;51.980;6.722;2023-05-01T06:52:18;8.90;99.90
64796;DHT22;51229;51.980;6.722;2023-05-01T06:54:43;9.20;99.90
64796;DHT22;51229;51.980;6.722;2023-05-01T06:57:09;9.10;99.90
64796;DHT22;51229;51.980;6.722;2023-05-01T06:59:35;9.10;99.90
64796;DHT22;51229;51.980;6.722;2023-05-01T07:02:00;9.00;99.90
64796;DHT22;51229;51.980;6.722;2023-05-01T07:04:26;9.20;99.90
64796;DHT22;51229;51.980;6.722;2023-05-01T07:06:52;9.30;99.90
64796;DHT22;51229;51.980;6.722;2023-05-01T07:09:17;9.50;99.90
64796;DHT22;51229;51.980;6.722;2023-05-01T07:11:43;9.90;99.90
64796;DHT22;51229;51.980;6.722;2023-05-01T07:14:09;9.80;99.90
64796;DHT22;51229;51.980;6.722;2023-05-01T07:16:35;9.90;99.90
64796;DHT22;51229;51.980;6.722;2023-05-01T07:19:00;9.90;99.90
64796;DHT22;51229;51.980;6.722;2023-05-01T07:21:26;9.80;99.90
64796;DHT22;51229;51.980;6.722;2023-05-01T07:23:52;9.90;99.90
64796;DHT22;51229;51.980;6.722;2023-05-01T07:26:17;9.90;99.90
64796;DHT22;51229;51.980;6.722;2023-05-01T07:28:44;10.10;99.90
64796;DHT22;51229;51.980;6.722;2023-05-01T07:31:09;10.00;99.90
64796;DHT22;51229;51.980;6.722;2023-05-01T07:33:38;9.90;99.90
64796;DHT22;51229;51.980;6.722;2023-05-01T07:36:04;10.20;99.90
64796;DHT22;51229;51.980;6.722;2023-05-01T07:38:29;10.40;99.90
64796;DHT22;51229;51.980;6.722;2023-05-01T07:40:55;10.60;99.90
64796;DHT22;51229;51.980;6.722;2023-05-01T07:43:22;10.90;99.90
64796;DHT22;51229;51.980;6.722;2023-05-01T07:45:58;11.40;99.90
64796;DHT22;51229;51.980;6.722;2023-05-01T07:48:25;11.40;99.90
64796;DHT22;51229;51.980;6.722;2023-05-01T07:50:52;11.40;99.90
64796;DHT22;51229;51.980;6.722;2023-05-01T07:53:17;11.20;99.90
64796;DHT22;51229;51.980;6.722;2023-05-01T07:55:43;10.90;99.90
64796;DHT22;51229;51.980;6.722;2023-05-01T07:58:12;11.00;99.90
64796;DHT22;51229;51.980;6.722;2023-05-01T08:00:37;11.00;99.90
64796;DHT22;51229;51.980;6.722;2023-05-01T08:03:03;11.00;99.90
64796;DHT22;51229;51.980;6.722;2023-05-01T08:05:29;10.90;99.90
64796;DHT22;51229;51.980;6.722;2023-05-01T08:07:56;11.00;99.90
64796;DHT22;51229;51.980;6.722;2023-05-01T08:10:22;11.00;99.90
64796;DHT22;51229;51.980;6.722;2023-05-01T08:12:48;10.80;99.90
64796;DHT22;51229;51.980;6.722;2023-05-01T08:15:14;11.00;99.90
64796;DHT22;51229;51.980;6.722;2023-05-01T08:17:40;11.20;99.90
64796;DHT22;51229;51.980;6.722;2023-05-01T08:20:06;11.30;99.90
64796;DHT22;51229;51.980;6.722;2023-05-01T08:22:32;11.40;99.90
64796;DHT22;51229;51.980;6.722;2023-05-01T08:24:57;11.50;99.90
64796;DHT22;51229;51.980;6.722;2023-05-01T08:27:23;11.60;99.90
64796;DHT22;51229;51.980;6.722;2023-05-01T08:29:50;11.90;99.90
64796;DHT22;51229;51.980;6.722;2023-05-01T08:32:17;12.20;99.90
64796;DHT22;51229;51.980;6.722;2023-05-01T08:34:42;12.20;99.90
64796;DHT22;51229;51.980;6.722;2023-05-01T08:37:08;12.20;99.90
64796;DHT22;51229;51.980;6.722;2023-05-01T08:39:33;12.10;99.90
64796;DHT22;51229;51.980;6.722;2023-05-01T08:41:59;12.30;99.90
64796;DHT22;51229;51.980;6.722;2023-05-01T08:44:25;12.80;99.90
64796;DHT22;51229;51.980;6.722;2023-05-01T08:47:02;14.00;99.90
64796;DHT22;51229;51.980;6.722;2023-05-01T08:49:33;14.10;99.90
64796;DHT22;51229;51.980;6.722;2023-05-01T08:52:01;14.10;99.90
64796;DHT22;51229;51.980;6.722;2023-05-01T08:54:30;14.20;99.90
64796;DHT22;51229;51.980;6.722;2023-05-01T08:57:01;14.30;99.90
64796;DHT22;51229;51.980;6.722;2023-05-01T08:59:29;14.00;99.90
64796;DHT22;51229;51.980;6.722;2023-05-01T09:02:02;13.80;99.90
64796;DHT22;51229;51.980;6.722;2023-05-01T09:04:38;14.50;99.90
64796;DHT22;51229;51.980;6.722;2023-05-01T09:07:04;15.00;99.90
64796;DHT22;51229;51.980;6.722;2023-05-01T09:09:30;15.00;99.90
64796;DHT22;51229;51.980;6.722;2023-05-01T09:14:43;15.80;99.90
64796;DHT22;51229;51.980;6.722;2023-05-01T09:17:10;16.20;99.90
64796;DHT22;51229;51.980;6.722;2023-05-01T09:19:36;17.40;99.90
64796;DHT22;51229;51.980;6.722;2023-05-01T09:22:02;17.60;95.60
64796;DHT22;51229;51.980;6.722;2023-05-01T09:24:27;18.00;97.30
64796;DHT22;51229;51.980;6.722;2023-05-01T09:26:53;18.00;99.90
64796;DHT22;51229;51.980;6.722;2023-05-01T09:32:19;17.20;99.90
64796;DHT22;51229;51.980;6.722;2023-05-01T09:34:48;17.10;97.10
64796;DHT22;51229;51.980;6.722;2023-05-01T09:37:28;16.60;99.90
64796;DHT22;51229;51.980;6.722;2023-05-01T09:42:30;18.30;99.90
64796;DHT22;51229;51.980;6.722;2023-05-01T09:44:59;17.80;97.50
64796;DHT22;51229;51.980;6.722;2023-05-01T09:47:27;17.70;99.00
64796;DHT22;51229;51.980;6.722;2023-05-01T09:49:54;18.50;99.90
64796;DHT22;51229;51.980;6.722;2023-05-01T09:52:28;19.70;96.50
64796;DHT22;51229;51.980;6.722;2023-05-01T09:55:16;19.70;89.10
64796;DHT22;51229;51.980;6.722;2023-05-01T09:57:43;19.40;99.80
64796;DHT22;51229;51.980;6.722;2023-05-01T10:00:11;19.80;99.50
64796;DHT22;51229;51.980;6.722;2023-05-01T10:02:39;20.20;99.90
64796;DHT22;51229;51.980;6.722;2023-05-01T10:05:05;20.70;99.00
64796;DHT22;51229;51.980;6.722;2023-05-01T10:07:32;20.10;98.80
64796;DHT22;51229;51.980;6.722;2023-05-01T10:10:14;20.10;94.50
64796;DHT22;51229;51.980;6.722;2023-05-01T10:12:40;21.30;87.60
64796;DHT22;51229;51.980;6.722;2023-05-01T10:15:06;21.10;96.60
64796;DHT22;51229;51.980;6.722;2023-05-01T10:17:33;21.60;97.30
64796;DHT22;51229;51.980;6.722;2023-05-01T10:19:59;21.40;98.00
64796;DHT22;51229;51.980;6.722;2023-05-01T10:22:24;21.30;97.80
64796;DHT22;51229;51.980;6.722;2023-05-01T10:24:51;21.30;99.50
64796;DHT22;51229;51.980;6.722;2023-05-01T10:27:17;21.10;99.90
64796;DHT22;51229;51.980;6.722;2023-05-01T10:29:45;20.70;99.90
64796;DHT22;51229;51.980;6.722;2023-05-01T10:32:12;20.90;99.90
64796;DHT22;51229;51.980;6.722;2023-05-01T10:34:42;20.80;99.90
64796;DHT22;51229;51.980;6.722;2023-05-01T10:37:12;20.70;99.90
64796;DHT22;51229;51.980;6.722;2023-05-01T10:39:38;20.00;99.90
64796;DHT22;51229;51.980;6.722;2023-05-01T10:42:08;19.90;99.90
64796;DHT22;51229;51.980;6.722;2023-05-01T10:44:41;20.10;99.90
64796;DHT22;51229;51.980;6.722;2023-05-01T10:50:22;20.60;99.90
64796;DHT22;51229;51.980;6.722;2023-05-01T10:55:40;21.80;99.90
64796;DHT22;51229;51.980;6.722;2023-05-01T10:58:58;22.10;99.90
64796;DHT22;51229;51.980;6.722;2023-05-01T11:01:41;22.80;99.90
64796;DHT22;51229;51.980;6.722;2023-05-01T11:09:56;23.30;99.90
64796;DHT22;51229;51.980;6.722;2023-05-01T11:13:01;23.30;99.90
64796;DHT22;51229;51.980;6.722;2023-05-01T11:15:31;23.50;96.80
64796;DHT22;51229;51.980;6.722;2023-05-01T11:17:59;24.00;98.50
64796;DHT22;51229;51.980;6.722;2023-05-01T11:22:52;24.60;97.00
64796;DHT22;51229;51.980;6.722;2023-05-01T11:25:26;24.30;66.10
64796;DHT22;51229;51.980;6.722;2023-05-01T11:28:02;23.90;96.00
64796;DHT22;51229;51.980;6.722;2023-05-01T11:30:38;24.40;96.20
64796;DHT22;51229;51.980;6.722;2023-05-01T11:33:04;24.00;97.90
64796;DHT22;51229;51.980;6.722;2023-05-01T11:35:31;23.60;98.30
64796;DHT22;51229;51.980;6.722;2023-05-01T11:37:57;23.90;99.10
64796;DHT22;51229;51.980;6.722;2023-05-01T11:40:25;24.30;97.80
64796;DHT22;51229;51.980;6.722;2023-05-01T11:42:59;24.20;98.10
64796;DHT22;51229;51.980;6.722;2023-05-01T11:45:25;23.90;98.60
64796;DHT22;51229;51.980;6.722;2023-05-01T11:47:54;24.60;97.80
64796;DHT22;51229;51.980;6.722;2023-05-01T11:50:20;24.70;97.60
64796;DHT22;51229;51.980;6.722;2023-05-01T11:52:48;25.00;75.10
64796;DHT22;51229;51.980;6.722;2023-05-01T11:55:14;24.80;96.70
64796;DHT22;51229;51.980;6.722;2023-05-01T11:57:59;25.20;96.10
64796;DHT22;51229;51.980;6.722;2023-05-01T12:00:30;25.40;95.70
64796;DHT22;51229;51.980;6.722;2023-05-01T12:03:04;24.70;80.90
64796;DHT22;51229;51.980;6.722;2023-05-01T12:05:34;24.50;98.00
64796;DHT22;51229;51.980;6.722;2023-05-01T12:08:20;25.00;96.30
64796;DHT22;51229;51.980;6.722;2023-05-01T12:10:48;25.50;96.80
64796;DHT22;51229;51.980;6.722;2023-05-01T12:13:14;25.30;97.50
64796;DHT22;51229;51.980;6.722;2023-05-01T12:15:49;25.20;97.70
64796;DHT22;51229;51.980;6.722;2023-05-01T12:18:16;24.50;97.70
64796;DHT22;51229;51.980;6.722;2023-05-01T12:20:44;24.20;99.60
64796;DHT22;51229;51.980;6.722;2023-05-01T12:23:12;24.60;99.60
64796;DHT22;51229;51.980;6.722;2023-05-01T12:25:39;24.80;99.30
64796;DHT22;51229;51.980;6.722;2023-05-01T12:28:17;25.10;98.20
64796;DHT22;51229;51.980;6.722;2023-05-01T12:30:47;25.60;97.10
64796;DHT22;51229;51.980;6.722;2023-05-01T12:33:16;25.60;97.30
64796;DHT22;51229;51.980;6.722;2023-05-01T12:35:43;26.10;96.00
64796;DHT22;51229;51.980;6.722;2023-05-01T12:38:20;26.50;95.50
64796;DHT22;51229;51.980;6.722;2023-05-01T12:40:58;24.50;59.10
64796;DHT22;51229;51.980;6.722;2023-05-01T12:43:43;23.20;90.70
64796;DHT22;51229;51.980;6.722;2023-05-01T12:46:13;24.30;97.20
64796;DHT22;51229;51.980;6.722;2023-05-01T12:48:39;25.10;94.40
64796;DHT22;51229;51.980;6.722;2023-05-01T12:51:05;24.50;97.90
64796;DHT22;51229;51.980;6.722;2023-05-01T12:53:32;25.10;97.70
64796;DHT22;51229;51.980;6.722;2023-05-01T12:55:58;25.10;97.90
64796;DHT22;51229;51.980;6.722;2023-05-01T12:58:34;25.20;97.00
64796;DHT22;51229;51.980;6.722;2023-05-01T13:01:01;25.00;98.40
64796;DHT22;51229;51.980;6.722;2023-05-01T13:03:28;25.00;97.80
64796;DHT22;51229;51.980;6.722;2023-05-01T13:05:56;25.30;98.60
64796;DHT22;51229;51.980;6.722;2023-05-01T13:08:27;25.10;98.10
64796;DHT22;51229;51.980;6.722;2023-05-01T13:10:54;24.50;88.70
64796;DHT22;51229;51.980;6.722;2023-05-01T13:13:32;24.90;90.70
64796;DHT22;51229;51.980;6.722;2023-05-01T13:16:12;24.90;86.70
64796;DHT22;51229;51.980;6.722;2023-05-01T13:18:49;25.50;94.40
64796;DHT22;51229;51.980;6.722;2023-05-01T13:21:21;24.00;89.40
64796;DHT22;51229;51.980;6.722;2023-05-01T13:24:05;24.00;99.90
64796;DHT22;51229;51.980;6.722;2023-05-01T13:26:32;24.50;99.90
64796;DHT22;51229;51.980;6.722;2023-05-01T13:29:02;24.50;99.90
64796;DHT22;51229;51.980;6.722;2023-05-01T13:31:28;24.50;99.90
64796;DHT22;51229;51.980;6.722;2023-05-01T13:33:56;24.50;99.90
64796;DHT22;51229;51.980;6.722;2023-05-01T13:36:22;24.80;96.90
64796;DHT22;51229;51.980;6.722;2023-05-01T13:38:50;23.20;66.50
64796;DHT22;51229;51.980;6.722;2023-05-01T13:41:19;24.40;99.90
64796;DHT22;51229;51.980;6.722;2023-05-01T13:43:46;25.40;99.90
64796;DHT22;51229;51.980;6.722;2023-05-01T13:46:14;26.20;97.40
64796;DHT22;51229;51.980;6.722;2023-05-01T13:48:41;25.80;98.70
64796;DHT22;51229;51.980;6.722;2023-05-01T13:51:07;26.30;94.60
64796;DHT22;51229;51.980;6.722;2023-05-01T13:53:34;26.00;96.70
64796;DHT22;51229;51.980;6.722;2023-05-01T13:56:03;25.60;99.20
64796;DHT22;51229;51.980;6.722;2023-05-01T13:58:29;25.60;99.20
64796;DHT22;51229;51.980;6.722;2023-05-01T14:00:55;25.70;98.40
64796;DHT22;51229;51.980;6.722;2023-05-01T14:03:21;25.80;98.50
64796;DHT22;51229;51.980;6.722;2023-05-01T14:05:47;25.10;99.90
64796;DHT22;51229;51.980;6.722;2023-05-01T14:08:13;24.90;99.90
64796;DHT22;51229;51.980;6.722;2023-05-01T14:10:39;24.60;99.90
64796;DHT22;51229;51.980;6.722;2023-05-01T14:13:05;24.40;99.90
64796;DHT22;51229;51.980;6.722;2023-05-01T14:15:35;24.10;99.90
64796;DHT22;51229;51.980;6.722;2023-05-01T14:18:06;24.20;99.90
64796;DHT22;51229;51.980;6.722;2023-05-01T14:20:32;24.30;99.90
64796;DHT22;51229;51.980;6.722;2023-05-01T14:22:58;24.10;99.90
64796;DHT22;51229;51.980;6.722;2023-05-01T14:27:53;23.50;99.90
64796;DHT22;51229;51.980;6.722;2023-05-01T14:30:40;23.50;99.90
64796;DHT22;51229;51.980;6.722;2023-05-01T14:33:08;23.20;99.90
64796;DHT22;51229;51.980;6.722;2023-05-01T14:35:35;23.20;99.90
64796;DHT22;51229;51.980;6.722;2023-05-01T14:38:09;23.30;99.90
64796;DHT22;51229;51.980;6.722;2023-05-01T14:40:35;23.20;99.90
64796;DHT22;51229;51.980;6.722;2023-05-01T14:43:00;23.10;99.90
64796;DHT22;51229;51.980;6.722;2023-05-01T14:45:27;23.20;99.90
64796;DHT22;51229;51.980;6.722;2023-05-01T14:47:52;23.20;99.90
64796;DHT22;51229;51.980;6.722;2023-05-01T14:50:20;23.20;99.90
64796;DHT22;51229;51.980;6.722;2023-05-01T14:52:54;23.10;99.90
64796;DHT22;51229;51.980;6.722;2023-05-01T14:55:25;22.90;99.90
64796;DHT22;51229;51.980;6.722;2023-05-01T14:57:52;23.10;99.90
64796;DHT22;51229;51.980;6.722;2023-05-01T15:00:17;23.00;99.90
64796;DHT22;51229;51.980;6.722;2023-05-01T15:02:43;22.90;99.90
64796;DHT22;51229;51.980;6.722;2023-05-01T15:05:09;22.80;99.90
64796;DHT22;51229;51.980;6.722;2023-05-01T15:07:35;22.80;99.90
64796;DHT22;51229;51.980;6.722;2023-05-01T15:10:00;22.60;99.90
64796;DHT22;51229;51.980;6.722;2023-05-01T15:12:26;22.50;99.90
64796;DHT22;51229;51.980;6.722;2023-05-01T15:14:52;22.50;99.90
64796;DHT22;51229;51.980;6.722;2023-05-01T15:17:17;22.50;99.90
64796;DHT22;51229;51.980;6.722;2023-05-01T15:19:43;22.60;99.90
64796;DHT22;51229;51.980;6.722;2023-05-01T15:22:09;22.60;99.90
64796;DHT22;51229;51.980;6.722;2023-05-01T15:24:34;22.60;99.90
64796;DHT22;51229;51.980;6.722;2023-05-01T15:27:00;22.40;99.90
64796;DHT22;51229;51.980;6.722;2023-05-01T15:29:27;22.40;99.90
64796;DHT22;51229;51.980;6.722;2023-05-01T15:31:53;22.50;99.90
64796;DHT22;51229;51.980;6.722;2023-05-01T15:34:19;22.40;99.90
64796;DHT22;51229;51.980;6.722;2023-05-01T15:36:45;22.10;99.90
64796;DHT22;51229;51.980;6.722;2023-05-01T15:39:10;22.10;99.90
64796;DHT22;51229;51.980;6.722;2023-05-01T15:41:37;22.20;99.90
64796;DHT22;51229;51.980;6.722;2023-05-01T15:44:03;22.20;99.90
64796;DHT22;51229;51.980;6.722;2023-05-01T15:46:32;22.10;99.90
64796;DHT22;51229;51.980;6.722;2023-05-01T15:48:58;22.00;99.90
64796;DHT22;51229;51.980;6.722;2023-05-01T15:51:24;22.00;99.90
64796;DHT22;51229;51.980;6.722;2023-05-01T15:53:50;21.90;99.90
64796;DHT22;51229;51.980;6.722;2023-05-01T15:56:16;21.80;99.90
64796;DHT22;51229;51.980;6.722;2023-05-01T15:58:41;21.80;99.90
64796;DHT22;51229;51.980;6.722;2023-05-01T16:01:07;21.70;99.90
64796;DHT22;51229;51.980;6.722;2023-05-01T16:03:33;21.70;99.90
64796;DHT22;51229;51.980;6.722;2023-05-01T16:05:59;21.80;99.90
64796;DHT22;51229;51.980;6.722;2023-05-01T16:08:25;21.60;99.90
64796;DHT22;51229;51.980;6.722;2023-05-01T16:10:51;21.50;99.90
64796;DHT22;51229;51.980;6.722;2023-05-01T16:13:18;21.40;99.90
64796;DHT22;51229;51.980;6.722;2023-05-01T16:15:43;21.30;99.90
64796;DHT22;51229;51.980;6.722;2023-05-01T16:18:17;21.30;99.90